sensor_id;sensor_type;location;lat;lon;timestamp;temperature;humidity
9760;DHT22;4919;48.792;9.202;2023-04-28T00:01:21;2.80;1.00
9760;DHT22;4919;48.792;9.202;2023-04-28T00:04:06;2.80;1.00
9760;DHT22;4919;48.792;9.202;2023-04-28T00:06:51;2.90;1.00
9760;DHT22;4919;48.792;9.202;2023-04-28T00:09:36;2.90;1.00
9760;DHT22;4919;48.792;9.202;2023-04-28T00:12:21;2.80;1.00
9760;DHT22;4919;48.792;9.202;2023-04-28T00:15:06;2.80;1.00
9760;DHT22;4919;48.792;9.202;2023-04-28T00:17:51;2.80;1.00
9760;DHT22;4919;48.792;9.202;2023-04-28T00:20:36;2.80;1.00
9760;DHT22;4919;48.792;9.202;2023-04-28T00:23:21;2.70;1.00
9760;DHT22;4919;48.792;9.202;2023-04-28T00:26:06;2.70;1.00
9760;DHT22;4919;48.792;9.202;2023-04-28T00:28:50;2.70;1.00
9760;DHT22;4919;48.792;9.202;2023-04-28T00:31:35;2.70;1.00
9760;DHT22;4919;48.792;9.202;2023-04-28T00:34:20;2.70;1.00
9760;DHT22;4919;48.792;9.202;2023-04-28T00:37:05;2.70;1.00
9760;DHT22;4919;48.792;9.202;2023-04-28T00:39:56;2.70;1.00
9760;DHT22;4919;48.792;9.202;2023-04-28T00:42:41;2.60;1.00
9760;DHT22;4919;48.792;9.202;2023-04-28T00:45:26;2.60;1.00
9760;DHT22;4919;48.792;9.202;2023-04-28T00:48:12;2.70;1.00
9760;DHT22;4919;48.792;9.202;2023-04-28T00:50:56;2.70;1.00
9760;DHT22;4919;48.792;9.202;2023-04-28T00:53:42;2.70;1.00
9760;DHT22;4919;48.792;9.202;2023-04-28T00:56:30;2.70;1.00
9760;DHT22;4919;48.792;9.202;2023-04-28T00:59:14;2.70;1.00
9760;DHT22;4919;48.792;9.202;2023-04-28T01:01:59;2.70;1.00
9760;DHT22;4919;48.792;9.202;2023-04-28T01:04:44;2.60;1.00
9760;DHT22;4919;48.792;9.202;2023-04-28T01:07:30;2.60;1.00
9760;DHT22;4919;48.792;9.202;2023-04-28T01:10:15;2.70;1.00
9760;DHT22;4919;48.792;9.202;2023-04-28T01:13:00;2.60;1.00
9760;DHT22;4919;48.792;9.202;2023-04-28T01:15:45;2.70;1.00
9760;DHT22;4919;48.792;9.202;2023-04-28T01:18:30;2.60;1.00
9760;DHT22;4919;48.792;9.202;2023-04-28T01:21:28;2.60;1.00
9760;DHT22;4919;48.792;9.202;2023-04-28T01:24:14;2.60;1.00
9760;DHT22;4919;48.792;9.202;2023-04-28T01:27:00;2.60;1.00
9760;DHT22;4919;48.792;9.202;2023-04-28T01:29:44;2.60;1.00
9760;DHT22;4919;48.792;9.202;2023-04-28T01:32:30;2.70;1.00
9760;DHT22;4919;48.792;9.202;2023-04-28T01:35:14;2.70;1.00
9760;DHT22;4919;48.792;9.202;2023-04-28T01:37:59;2.70;1.00
9760;DHT22;4919;48.792;9.202;2023-04-28T01:40:44;2.70;1.00
9760;DHT22;4919;48.792;9.202;2023-04-28T01:43:29;2.70;1.00
9760;DHT22;4919;48.792;9.202;2023-04-28T01:46:14;2.80;1.00
9760;DHT22;4919;48.792;9.202;2023-04-28T01:48:59;2.80;1.00
9760;DHT22;4919;48.792;9.202;2023-04-28T01:51:44;2.80;1.00
9760;DHT22;4919;48.792;9.202;2023-04-28T01:54:29;2.80;1.00
9760;DHT22;4919;48.792;9.202;2023-04-28T01:57:14;2.80;1.00
9760;DHT22;4919;48.792;9.202;2023-04-28T01:59:58;2.80;1.00
9760;DHT22;4919;48.792;9.202;2023-04-28T02:02:43;2.80;1.00
9760;DHT22;4919;48.792;9.202;2023-04-28T02:05:28;2.90;1.00
9760;DHT22;4919;48.792;9.202;2023-04-28T02:08:13;2.80;1.00
9760;DHT22;4919;48.792;9.202;2023-04-28T02:10:58;2.80;1.00
9760;DHT22;4919;48.792;9.202;2023-04-28T02:13:43;2.80;1.00
9760;DHT22;4919;48.792;9.202;2023-04-28T02:16:28;2.80;1.00
9760;DHT22;4919;48.792;9.202;2023-04-28T02:19:14;2.80;1.00
9760;DHT22;4919;48.792;9.202;2023-04-28T02:21:58;2.80;1.00
9760;DHT22;4919;48.792;9.202;2023-04-28T02:24:43;2.70;1.00
9760;DHT22;4919;48.792;9.202;2023-04-28T02:27:28;2.70;1.00
9760;DHT22;4919;48.792;9.202;2023-04-28T02:30:13;2.70;1.00
9760;DHT22;4919;48.792;9.202;2023-04-28T02:32:58;2.80;1.00
9760;DHT22;4919;48.792;9.202;2023-04-28T02:35:43;2.70;1.00
9760;DHT22;4919;48.792;9.202;2023-04-28T02:38:28;2.80;1.00
9760;DHT22;4919;48.792;9.202;2023-04-28T02:41:13;2.80;1.00
9760;DHT22;4919;48.792;9.202;2023-04-28T02:43:57;2.80;1.00
9760;DHT22;4919;48.792;9.202;2023-04-28T02:46:42;2.80;1.00
9760;DHT22;4919;48.792;9.202;2023-04-28T02:49:27;2.80;1.00
9760;DHT22;4919;48.792;9.202;2023-04-28T02:52:12;2.90;1.00
9760;DHT22;4919;48.792;9.202;2023-04-28T02:54:57;2.80;1.00
9760;DHT22;4919;48.792;9.202;2023-04-28T02:57:41;2.90;1.00
9760;DHT22;4919;48.792;9.202;2023-04-28T03:00:26;2.90;1.00
9760;DHT22;4919;48.792;9.202;2023-04-28T03:03:11;2.90;1.00
9760;DHT22;4919;48.792;9.202;2023-04-28T03:05:56;2.90;1.00
9760;DHT22;4919;48.792;9.202;2023-04-28T03:08:41;3.00;1.00
9760;DHT22;4919;48.792;9.202;2023-04-28T03:11:26;3.10;1.00
9760;DHT22;4919;48.792;9.202;2023-04-28T03:14:11;3.10;1.00
9760;DHT22;4919;48.792;9.202;2023-04-28T03:16:56;3.00;1.00
9760;DHT22;4919;48.792;9.202;2023-04-28T03:19:41;3.00;1.00
9760;DHT22;4919;48.792;9.202;2023-04-28T03:22:26;2.90;1.00
9760;DHT22;4919;48.792;9.202;2023-04-28T03:25:10;2.90;1.00
9760;DHT22;4919;48.792;9.202;2023-04-28T03:27:55;2.90;1.00
9760;DHT22;4919;48.792;9.202;2023-04-28T03:30:40;2.90;1.00
9760;DHT22;4919;48.792;9.202;2023-04-28T03:33:25;2.90;1.00
9760;DHT22;4919;48.792;9.202;2023-04-28T03:36:10;3.00;1.00
9760;DHT22;4919;48.792;9.202;2023-04-28T03:38:55;3.00;1.00
9760;DHT22;4919;48.792;9.202;2023-04-28T03:41:39;3.00;1.00
9760;DHT22;4919;48.792;9.202;2023-04-28T03:44:24;3.00;1.00
9760;DHT22;4919;48.792;9.202;2023-04-28T03:47:09;2.90;1.00
9760;DHT22;4919;48.792;9.202;2023-04-28T03:49:54;2.90;1.00
9760;DHT22;4919;48.792;9.202;2023-04-28T03:52:39;2.90;1.00
9760;DHT22;4919;48.792;9.202;2023-04-28T03:55:24;2.90;1.00
9760;DHT22;4919;48.792;9.202;2023-04-28T03:58:09;2.90;1.00
9760;DHT22;4919;48.792;9.202;2023-04-28T04:00:54;3.00;1.00
9760;DHT22;4919;48.792;9.202;2023-04-28T04:03:39;3.00;1.00
9760;DHT22;4919;48.792;9.202;2023-04-28T04:06:24;3.10;1.00
9760;DHT22;4919;48.792;9.202;2023-04-28T04:09:09;3.10;1.00
9760;DHT22;4919;48.792;9.202;2023-04-28T04:11:54;3.10;1.00
9760;DHT22;4919;48.792;9.202;2023-04-28T04:14:38;3.20;8.20
9760;DHT22;4919;48.792;9.202;2023-04-28T04:17:23;3.20;1.00
9760;DHT22;4919;48.792;9.202;2023-04-28T04:20:08;3.10;1.00
9760;DHT22;4919;48.792;9.202;2023-04-28T04:22:53;3.10;1.00
9760;DHT22;4919;48.792;9.202;2023-04-28T04:25:38;3.20;1.00
9760;DHT22;4919;48.792;9.202;2023-04-28T04:28:23;3.30;1.00
9760;DHT22;4919;48.792;9.202;2023-04-28T04:31:08;3.40;1.00
9760;DHT22;4919;48.792;9.202;2023-04-28T04:33:53;3.40;1.00
9760;DHT22;4919;48.792;9.202;2023-04-28T04:36:37;3.60;1.00
9760;DHT22;4919;48.792;9.202;2023-04-28T04:39:22;3.70;1.00
9760;DHT22;4919;48.792;9.202;2023-04-28T04:42:07;3.90;1.00
9760;DHT22;4919;48.792;9.202;2023-04-28T04:44:52;4.00;1.00
9760;DHT22;4919;48.792;9.202;2023-04-28T04:47:37;4.20;1.00
9760;DHT22;4919;48.792;9.202;2023-04-28T04:50:22;4.40;1.00
9760;DHT22;4919;48.792;9.202;2023-04-28T04:53:07;4.70;1.00
9760;DHT22;4919;48.792;9.202;2023-04-28T04:55:52;4.80;1.00
9760;DHT22;4919;48.792;9.202;2023-04-28T04:58:37;5.10;1.00
9760;DHT22;4919;48.792;9.202;2023-04-28T05:01:21;5.40;1.00
9760;DHT22;4919;48.792;9.202;2023-04-28T05:04:06;5.50;1.00
9760;DHT22;4919;48.792;9.202;2023-04-28T05:06:51;5.90;1.00
9760;DHT22;4919;48.792;9.202;2023-04-28T05:09:36;6.10;1.00
9760;DHT22;4919;48.792;9.202;2023-04-28T05:12:21;6.20;1.00
9760;DHT22;4919;48.792;9.202;2023-04-28T05:15:06;6.00;1.00
9760;DHT22;4919;48.792;9.202;2023-04-28T05:17:51;6.30;1.00
9760;DHT22;4919;48.792;9.202;2023-04-28T05:20:36;6.50;1.00
9760;DHT22;4919;48.792;9.202;2023-04-28T05:23:21;6.70;1.00
9760;DHT22;4919;48.792;9.202;2023-04-28T05:26:06;7.00;1.00
9760;DHT22;4919;48.792;9.202;2023-04-28T05:28:51;7.30;1.00
9760;DHT22;4919;48.792;9.202;2023-04-28T05:31:35;7.50;1.00
9760;DHT22;4919;48.792;9.202;2023-04-28T05:34:20;7.60;1.00
9760;DHT22;4919;48.792;9.202;2023-04-28T05:37:05;7.90;1.00
9760;DHT22;4919;48.792;9.202;2023-04-28T05:39:50;8.10;1.00
9760;DHT22;4919;48.792;9.202;2023-04-28T05:42:35;8.50;1.00
9760;DHT22;4919;48.792;9.202;2023-04-28T05:45:20;8.50;1.00
9760;DHT22;4919;48.792;9.202;2023-04-28T05:48:05;8.50;1.00
9760;DHT22;4919;48.792;9.202;2023-04-28T05:50:50;8.60;1.00
9760;DHT22;4919;48.792;9.202;2023-04-28T05:53:34;8.90;1.00
9760;DHT22;4919;48.792;9.202;2023-04-28T05:56:19;9.20;1.00
9760;DHT22;4919;48.792;9.202;2023-04-28T05:59:04;9.50;1.00
9760;DHT22;4919;48.792;9.202;2023-04-28T06:01:49;9.80;1.00
9760;DHT22;4919;48.792;9.202;2023-04-28T06:04:34;10.00;1.00
9760;DHT22;4919;48.792;9.202;2023-04-28T06:07:19;10.40;1.00
9760;DHT22;4919;48.792;9.202;2023-04-28T06:10:04;10.10;1.00
9760;DHT22;4919;48.792;9.202;2023-04-28T06:12:49;9.50;1.00
9760;DHT22;4919;48.792;9.202;2023-04-28T06:15:34;9.40;1.00
9760;DHT22;4919;48.792;9.202;2023-04-28T06:18:19;9.20;1.00
9760;DHT22;4919;48.792;9.202;2023-04-28T06:21:03;9.20;1.00
9760;DHT22;4919;48.792;9.202;2023-04-28T06:23:48;9.10;1.00
9760;DHT22;4919;48.792;9.202;2023-04-28T06:26:33;9.10;1.00
9760;DHT22;4919;48.792;9.202;2023-04-28T06:29:18;9.00;1.00
9760;DHT22;4919;48.792;9.202;2023-04-28T06:32:03;8.80;1.00
9760;DHT22;4919;48.792;9.202;2023-04-28T06:34:48;8.80;1.00
9760;DHT22;4919;48.792;9.202;2023-04-28T06:37:33;8.70;1.00
9760;DHT22;4919;48.792;9.202;2023-04-28T06:40:18;8.60;1.00
9760;DHT22;4919;48.792;9.202;2023-04-28T06:43:02;8.70;1.00
9760;DHT22;4919;48.792;9.202;2023-04-28T06:45:47;8.70;1.00
9760;DHT22;4919;48.792;9.202;2023-04-28T06:48:32;8.70;1.00
9760;DHT22;4919;48.792;9.202;2023-04-28T06:51:17;8.80;1.00
9760;DHT22;4919;48.792;9.202;2023-04-28T06:54:02;9.20;1.00
9760;DHT22;4919;48.792;9.202;2023-04-28T06:56:47;9.40;1.00
9760;DHT22;4919;48.792;9.202;2023-04-28T06:59:32;9.70;1.00
9760;DHT22;4919;48.792;9.202;2023-04-28T07:02:17;9.90;1.00
9760;DHT22;4919;48.792;9.202;2023-04-28T07:05:02;10.00;1.00
9760;DHT22;4919;48.792;9.202;2023-04-28T07:07:47;10.10;1.00
9760;DHT22;4919;48.792;9.202;2023-04-28T07:10:32;10.20;1.00
9760;DHT22;4919;48.792;9.202;2023-04-28T07:13:17;10.30;1.00
9760;DHT22;4919;48.792;9.202;2023-04-28T07:16:03;10.50;1.00
9760;DHT22;4919;48.792;9.202;2023-04-28T07:18:47;10.60;1.00
9760;DHT22;4919;48.792;9.202;2023-04-28T07:21:32;10.60;1.00
9760;DHT22;4919;48.792;9.202;2023-04-28T07:24:17;10.60;1.00
9760;DHT22;4919;48.792;9.202;2023-04-28T07:27:02;10.70;1.00
9760;DHT22;4919;48.792;9.202;2023-04-28T07:29:47;10.90;1.00
9760;DHT22;4919;48.792;9.202;2023-04-28T07:32:32;10.90;1.00
9760;DHT22;4919;48.792;9.202;2023-04-28T07:35:17;10.90;1.00
9760;DHT22;4919;48.792;9.202;2023-04-28T07:38:02;10.80;1.00
9760;DHT22;4919;48.792;9.202;2023-04-28T07:40:47;10.70;1.00
9760;DHT22;4919;48.792;9.202;2023-04-28T07:43:32;10.80;1.00
9760;DHT22;4919;48.792;9.202;2023-04-28T07:46:17;10.80;1.00
9760;DHT22;4919;48.792;9.202;2023-04-28T07:49:02;11.00;1.00
9760;DHT22;4919;48.792;9.202;2023-04-28T07:51:47;11.10;1.00
9760;DHT22;4919;48.792;9.202;2023-04-28T07:54:32;11.30;1.00
9760;DHT22;4919;48.792;9.202;2023-04-28T07:57:17;11.50;1.00
9760;DHT22;4919;48.792;9.202;2023-04-28T08:00:02;11.70;1.00
9760;DHT22;4919;48.792;9.202;2023-04-28T08:02:47;11.90;1.00
9760;DHT22;4919;48.792;9.202;2023-04-28T08:05:31;12.00;1.00
9760;DHT22;4919;48.792;9.202;2023-04-28T08:08:16;12.00;1.00
9760;DHT22;4919;48.792;9.202;2023-04-28T08:11:01;12.20;1.00
9760;DHT22;4919;48.792;9.202;2023-04-28T08:13:46;12.30;1.00
9760;DHT22;4919;48.792;9.202;2023-04-28T08:16:31;12.10;1.00
9760;DHT22;4919;48.792;9.202;2023-04-28T08:19:15;12.10;1.00
9760;DHT22;4919;48.792;9.202;2023-04-28T08:22:00;11.90;1.00
9760;DHT22;4919;48.792;9.202;2023-04-28T08:24:45;12.10;1.00
9760;DHT22;4919;48.792;9.202;2023-04-28T08:27:30;12.20;1.00
9760;DHT22;4919;48.792;9.202;2023-04-28T08:30:15;12.20;1.00
9760;DHT22;4919;48.792;9.202;2023-04-28T08:32:59;12.30;1.00
9760;DHT22;4919;48.792;9.202;2023-04-28T08:35:44;12.50;1.00
9760;DHT22;4919;48.792;9.202;2023-04-28T08:38:29;12.30;1.00
9760;DHT22;4919;48.792;9.202;2023-04-28T08:41:14;12.40;1.00
9760;DHT22;4919;48.792;9.202;2023-04-28T08:43:59;12.60;1.00
9760;DHT22;4919;48.792;9.202;2023-04-28T08:46:46;12.90;1.00
9760;DHT22;4919;48.792;9.202;2023-04-28T08:49:34;12.80;1.00
9760;DHT22;4919;48.792;9.202;2023-04-28T08:52:19;13.10;1.00
9760;DHT22;4919;48.792;9.202;2023-04-28T08:55:09;12.90;1.00
9760;DHT22;4919;48.792;9.202;2023-04-28T08:57:55;12.90;1.00
9760;DHT22;4919;48.792;9.202;2023-04-28T09:00:40;13.30;1.00
9760;DHT22;4919;48.792;9.202;2023-04-28T09:03:25;13.60;1.00
9760;DHT22;4919;48.792;9.202;2023-04-28T09:06:10;13.50;1.00
9760;DHT22;4919;48.792;9.202;2023-04-28T09:08:55;13.70;1.00
9760;DHT22;4919;48.792;9.202;2023-04-28T09:11:50;13.80;1.00
9760;DHT22;4919;48.792;9.202;2023-04-28T09:14:36;14.00;1.00
9760;DHT22;4919;48.792;9.202;2023-04-28T09:17:21;14.10;1.00
9760;DHT22;4919;48.792;9.202;2023-04-28T09:20:19;14.10;1.00
9760;DHT22;4919;48.792;9.202;2023-04-28T09:23:17;14.40;1.00
9760;DHT22;4919;48.792;9.202;2023-04-28T09:26:06;14.30;1.00
9760;DHT22;4919;48.792;9.202;2023-04-28T09:28:50;14.70;1.00
9760;DHT22;4919;48.792;9.202;2023-04-28T09:31:35;15.10;1.00
9760;DHT22;4919;48.792;9.202;2023-04-28T09:34:20;15.00;1.00
9760;DHT22;4919;48.792;9.202;2023-04-28T09:37:14;15.10;1.00
9760;DHT22;4919;48.792;9.202;2023-04-28T09:40:10;14.90;1.00
9760;DHT22;4919;48.792;9.202;2023-04-28T09:42:54;15.30;1.00
9760;DHT22;4919;48.792;9.202;2023-04-28T09:45:39;14.80;1.00
9760;DHT22;4919;48.792;9.202;2023-04-28T09:48:35;15.30;1.00
9760;DHT22;4919;48.792;9.202;2023-04-28T09:51:20;15.50;1.00
9760;DHT22;4919;48.792;9.202;2023-04-28T09:54:05;14.90;1.00
9760;DHT22;4919;48.792;9.202;2023-04-28T09:56:50;14.70;1.00
9760;DHT22;4919;48.792;9.202;2023-04-28T09:59:36;15.00;1.00
9760;DHT22;4919;48.792;9.202;2023-04-28T10:02:20;15.90;1.00
9760;DHT22;4919;48.792;9.202;2023-04-28T10:05:06;16.00;1.00
9760;DHT22;4919;48.792;9.202;2023-04-28T10:07:51;16.60;1.00
9760;DHT22;4919;48.792;9.202;2023-04-28T10:10:36;16.50;1.00
9760;DHT22;4919;48.792;9.202;2023-04-28T10:13:22;17.00;1.00
9760;DHT22;4919;48.792;9.202;2023-04-28T10:16:08;16.60;1.00
9760;DHT22;4919;48.792;9.202;2023-04-28T10:18:55;16.50;1.00
9760;DHT22;4919;48.792;9.202;2023-04-28T10:21:46;16.10;1.00
9760;DHT22;4919;48.792;9.202;2023-04-28T10:27:52;16.30;1.00
9760;DHT22;4919;48.792;9.202;2023-04-28T10:30:36;16.50;1.00
9760;DHT22;4919;48.792;9.202;2023-04-28T10:33:22;16.40;1.00
9760;DHT22;4919;48.792;9.202;2023-04-28T10:36:08;16.90;1.00
9760;DHT22;4919;48.792;9.202;2023-04-28T10:39:09;17.20;1.00
9760;DHT22;4919;48.792;9.202;2023-04-28T10:41:54;17.30;1.00
9760;DHT22;4919;48.792;9.202;2023-04-28T10:44:42;17.80;1.00
9760;DHT22;4919;48.792;9.202;2023-04-28T10:47:27;17.20;1.00
9760;DHT22;4919;48.792;9.202;2023-04-28T10:50:12;16.90;1.00
9760;DHT22;4919;48.792;9.202;2023-04-28T10:52:57;16.70;1.00
9760;DHT22;4919;48.792;9.202;2023-04-28T10:55:41;16.30;1.00
9760;DHT22;4919;48.792;9.202;2023-04-28T11:04:06;16.90;1.00
9760;DHT22;4919;48.792;9.202;2023-04-28T11:07:10;17.00;1.00
9760;DHT22;4919;48.792;9.202;2023-04-28T11:09:55;16.50;1.00
9760;DHT22;4919;48.792;9.202;2023-04-28T11:16:05;16.40;1.00
9760;DHT22;4919;48.792;9.202;2023-04-28T11:19:00;16.70;1.00
9760;DHT22;4919;48.792;9.202;2023-04-28T11:21:46;16.80;1.00
9760;DHT22;4919;48.792;9.202;2023-04-28T11:24:31;16.60;1.00
9760;DHT22;4919;48.792;9.202;2023-04-28T11:27:23;16.50;1.00
9760;DHT22;4919;48.792;9.202;2023-04-28T11:30:20;16.60;1.00
9760;DHT22;4919;48.792;9.202;2023-04-28T11:33:06;16.40;1.00
9760;DHT22;4919;48.792;9.202;2023-04-28T11:35:51;16.50;1.00
9760;DHT22;4919;48.792;9.202;2023-04-28T11:38:43;16.50;1.00
9760;DHT22;4919;48.792;9.202;2023-04-28T11:41:27;16.70;1.00
9760;DHT22;4919;48.792;9.202;2023-04-28T11:47:00;16.90;1.00
9760;DHT22;4919;48.792;9.202;2023-04-28T11:49:45;16.60;1.00
9760;DHT22;4919;48.792;9.202;2023-04-28T11:52:31;16.70;1.00
9760;DHT22;4919;48.792;9.202;2023-04-28T11:55:16;16.90;1.00
9760;DHT22;4919;48.792;9.202;2023-04-28T11:58:20;16.90;1.00
9760;DHT22;4919;48.792;9.202;2023-04-28T12:01:10;16.90;1.00
9760;DHT22;4919;48.792;9.202;2023-04-28T12:03:55;16.90;1.00
9760;DHT22;4919;48.792;9.202;2023-04-28T12:06:40;16.90;1.00
9760;DHT22;4919;48.792;9.202;2023-04-28T12:09:25;16.80;1.00
9760;DHT22;4919;48.792;9.202;2023-04-28T12:12:12;17.20;1.00
9760;DHT22;4919;48.792;9.202;2023-04-28T12:17:42;17.30;1.00
9760;DHT22;4919;48.792;9.202;2023-04-28T12:23:33;17.10;1.00
9760;DHT22;4919;48.792;9.202;2023-04-28T12:26:24;17.20;1.00
9760;DHT22;4919;48.792;9.202;2023-04-28T12:29:09;17.10;1.00
9760;DHT22;4919;48.792;9.202;2023-04-28T12:31:53;17.10;1.00
9760;DHT22;4919;48.792;9.202;2023-04-28T12:34:40;17.10;1.00
9760;DHT22;4919;48.792;9.202;2023-04-28T12:37:25;17.00;1.00
9760;DHT22;4919;48.792;9.202;2023-04-28T12:40:10;17.10;1.00
9760;DHT22;4919;48.792;9.202;2023-04-28T12:42:55;16.90;1.00
9760;DHT22;4919;48.792;9.202;2023-04-28T12:45:40;17.10;1.00
9760;DHT22;4919;48.792;9.202;2023-04-28T12:48:26;17.10;1.00
9760;DHT22;4919;48.792;9.202;2023-04-28T12:51:10;17.00;1.00
9760;DHT22;4919;48.792;9.202;2023-04-28T12:53:55;16.90;1.00
9760;DHT22;4919;48.792;9.202;2023-04-28T12:56:40;17.00;1.00
9760;DHT22;4919;48.792;9.202;2023-04-28T12:59:25;16.90;1.00
9760;DHT22;4919;48.792;9.202;2023-04-28T13:02:10;16.70;1.00
9760;DHT22;4919;48.792;9.202;2023-04-28T13:04:55;16.80;1.00
9760;DHT22;4919;48.792;9.202;2023-04-28T13:07:40;16.70;1.00
9760;DHT22;4919;48.792;9.202;2023-04-28T13:10:24;16.70;1.00
9760;DHT22;4919;48.792;9.202;2023-04-28T13:13:09;16.80;1.00
9760;DHT22;4919;48.792;9.202;2023-04-28T13:15:54;16.70;1.00
9760;DHT22;4919;48.792;9.202;2023-04-28T13:18:39;16.50;1.00
9760;DHT22;4919;48.792;9.202;2023-04-28T13:21:24;16.30;1.00
9760;DHT22;4919;48.792;9.202;2023-04-28T13:24:09;16.30;1.00
9760;DHT22;4919;48.792;9.202;2023-04-28T13:26:54;16.00;1.00
9760;DHT22;4919;48.792;9.202;2023-04-28T13:29:39;16.00;1.00
9760;DHT22;4919;48.792;9.202;2023-04-28T13:32:24;16.10;1.00
9760;DHT22;4919;48.792;9.202;2023-04-28T13:35:09;16.20;1.00
9760;DHT22;4919;48.792;9.202;2023-04-28T13:37:54;16.20;1.00
9760;DHT22;4919;48.792;9.202;2023-04-28T13:40:39;16.20;1.00
9760;DHT22;4919;48.792;9.202;2023-04-28T13:43:24;16.20;1.00
9760;DHT22;4919;48.792;9.202;2023-04-28T13:46:09;16.20;1.00
9760;DHT22;4919;48.792;9.202;2023-04-28T13:48:54;16.20;1.00
9760;DHT22;4919;48.792;9.202;2023-04-28T13:51:38;16.10;1.00
9760;DHT22;4919;48.792;9.202;2023-04-28T13:54:23;16.00;1.00
9760;DHT22;4919;48.792;9.202;2023-04-28T13:57:08;15.90;1.00
9760;DHT22;4919;48.792;9.202;2023-04-28T13:59:53;15.90;1.00
9760;DHT22;4919;48.792;9.202;2023-04-28T14:02:38;15.80;1.00
9760;DHT22;4919;48.792;9.202;2023-04-28T14:05:23;15.70;1.00
9760;DHT22;4919;48.792;9.202;2023-04-28T14:08:08;15.60;1.00
9760;DHT22;4919;48.792;9.202;2023-04-28T14:10:53;15.50;1.00
9760;DHT22;4919;48.792;9.202;2023-04-28T14:13:38;15.40;1.00
9760;DHT22;4919;48.792;9.202;2023-04-28T14:16:23;15.40;1.00
9760;DHT22;4919;48.792;9.202;2023-04-28T14:19:08;15.30;1.00
9760;DHT22;4919;48.792;9.202;2023-04-28T14:21:53;15.20;1.00
9760;DHT22;4919;48.792;9.202;2023-04-28T14:24:37;15.10;1.00
9760;DHT22;4919;48.792;9.202;2023-04-28T14:27:22;15.10;1.00
9760;DHT22;4919;48.792;9.202;2023-04-28T14:30:07;15.00;1.00
9760;DHT22;4919;48.792;9.202;2023-04-28T14:32:52;15.00;1.00
9760;DHT22;4919;48.792;9.202;2023-04-28T14:35:37;15.00;1.00
9760;DHT22;4919;48.792;9.202;2023-04-28T14:38:21;14.90;1.00
9760;DHT22;4919;48.792;9.202;2023-04-28T14:41:06;15.00;1.00
9760;DHT22;4919;48.792;9.202;2023-04-28T14:43:51;15.00;1.00
9760;DHT22;4919;48.792;9.202;2023-04-28T14:46:36;14.90;1.00
9760;DHT22;4919;48.792;9.202;2023-04-28T14:49:21;15.00;1.00
9760;DHT22;4919;48.792;9.202;2023-04-28T14:52:06;15.00;1.00
9760;DHT22;4919;48.792;9.202;2023-04-28T14:54:52;14.90;1.00
9760;DHT22;4919;48.792;9.202;2023-04-28T14:57:37;14.90;1.00
9760;DHT22;4919;48.792;9.202;2023-04-28T15:00:22;14.90;1.00
9760;DHT22;4919;48.792;9.202;2023-04-28T15:03:07;14.80;1.00
9760;DHT22;4919;48.792;9.202;2023-04-28T15:05:52;14.70;1.00
9760;DHT22;4919;48.792;9.202;2023-04-28T15:08:37;14.70;1.00
9760;DHT22;4919;48.792;9.202;2023-04-28T15:11:21;14.60;1.00
9760;DHT22;4919;48.792;9.202;2023-04-28T15:14:06;14.40;1.00
9760;DHT22;4919;48.792;9.202;2023-04-28T15:16:51;14.40;1.00
9760;DHT22;4919;48.792;9.202;2023-04-28T15:19:36;14.40;1.00
9760;DHT22;4919;48.792;9.202;2023-04-28T15:22:21;14.40;1.00
9760;DHT22;4919;48.792;9.202;2023-04-28T15:25:06;14.40;1.00
9760;DHT22;4919;48.792;9.202;2023-04-28T15:27:50;14.30;1.00
9760;DHT22;4919;48.792;9.202;2023-04-28T15:30:35;14.40;1.00
9760;DHT22;4919;48.792;9.202;2023-04-28T15:33:20;14.40;1.00
9760;DHT22;4919;48.792;9.202;2023-04-28T15:36:06;14.30;1.00
9760;DHT22;4919;48.792;9.202;2023-04-28T15:38:51;14.30;1.00
9760;DHT22;4919;48.792;9.202;2023-04-28T15:41:36;14.30;1.00
9760;DHT22;4919;48.792;9.202;2023-04-28T15:44:21;14.20;1.00
9760;DHT22;4919;48.792;9.202;2023-04-28T15:47:06;14.20;1.00
9760;DHT22;4919;48.792;9.202;2023-04-28T15:49:51;14.10;1.00
9760;DHT22;4919;48.792;9.202;2023-04-28T15:52:39;14.10;1.00
9760;DHT22;4919;48.792;9.202;2023-04-28T15:55:24;14.10;1.00
9760;DHT22;4919;48.792;9.202;2023-04-28T15:58:09;14.10;1.00
9760;DHT22;4919;48.792;9.202;2023-04-28T16:00:54;14.00;1.00
9760;DHT22;4919;48.792;9.202;2023-04-28T16:03:38;14.10;1.00
9760;DHT22;4919;48.792;9.202;2023-04-28T16:06:23;14.00;1.00
9760;DHT22;4919;48.792;9.202;2023-04-28T16:09:08;14.00;1.00
9760;DHT22;4919;48.792;9.202;2023-04-28T16:11:53;14.00;1.00
9760;DHT22;4919;48.792;9.202;2023-04-28T16:14:38;13.90;1.00
9760;DHT22;4919;48.792;9.202;2023-04-28T16:17:23;13.90;1.00
9760;DHT22;4919;48.792;9.202;2023-04-28T16:20:09;13.80;1.00
9760;DHT22;4919;48.792;9.202;2023-04-28T16:22:54;13.80;1.00
9760;DHT22;4919;48.792;9.202;2023-04-28T16:25:39;13.70;1.00
9760;DHT22;4919;48.792;9.202;2023-04-28T16:28:23;13.70;1.00
9760;DHT22;4919;48.792;9.202;2023-04-28T16:31:11;13.70;1.00
9760;DHT22;4919;48.792;9.202;2023-04-28T16:33:56;13.80;1.00
9760;DHT22;4919;48.792;9.202;2023-04-28T16:36:41;13.80;1.00
9760;DHT22;4919;48.792;9.202;2023-04-28T16:39:26;13.90;1.00
9760;DHT22;4919;48.792;9.202;2023-04-28T16:42:11;13.90;1.00
9760;DHT22;4919;48.792;9.202;2023-04-28T16:44:56;13.90;1.00
9760;DHT22;4919;48.792;9.202;2023-04-28T16:47:41;13.80;1.00
9760;DHT22;4919;48.792;9.202;2023-04-28T16:50:26;13.80;1.00
9760;DHT22;4919;48.792;9.202;2023-04-28T16:53:11;13.70;1.00
9760;DHT22;4919;48.792;9.202;2023-04-28T16:55:56;13.60;1.00
9760;DHT22;4919;48.792;9.202;2023-04-28T16:58:41;13.60;1.00
9760;DHT22;4919;48.792;9.202;2023-04-28T17:01:25;13.50;1.00
9760;DHT22;4919;48.792;9.202;2023-04-28T17:04:10;13.50;1.00
9760;DHT22;4919;48.792;9.202;2023-04-28T17:06:55;13.40;1.00
9760;DHT22;4919;48.792;9.202;2023-04-28T17:09:40;13.30;1.00
9760;DHT22;4919;48.792;9.202;2023-04-28T17:12:25;13.30;1.00
9760;DHT22;4919;48.792;9.202;2023-04-28T17:15:13;13.20;1.00
9760;DHT22;4919;48.792;9.202;2023-04-28T17:17:58;13.20;1.00
9760;DHT22;4919;48.792;9.202;2023-04-28T17:20:42;13.20;1.00
9760;DHT22;4919;48.792;9.202;2023-04-28T17:23:27;13.20;1.00
9760;DHT22;4919;48.792;9.202;2023-04-28T17:26:12;13.20;1.00
9760;DHT22;4919;48.792;9.202;2023-04-28T17:28:57;13.10;1.00
9760;DHT22;4919;48.792;9.202;2023-04-28T17:31:42;13.10;1.00
9760;DHT22;4919;48.792;9.202;2023-04-28T17:34:27;13.00;1.00
9760;DHT22;4919;48.792;9.202;2023-04-28T17:37:12;12.90;1.00
9760;DHT22;4919;48.792;9.202;2023-04-28T17:39:57;12.80;1.00
9760;DHT22;4919;48.792;9.202;2023-04-28T17:42:42;12.70;1.00
9760;DHT22;4919;48.792;9.202;2023-04-28T17:45:28;12.70;1.00
9760;DHT22;4919;48.792;9.202;2023-04-28T17:48:13;12.70;1.00
9760;DHT22;4919;48.792;9.202;2023-04-28T17:50:57;12.70;1.00
9760;DHT22;4919;48.792;9.202;2023-04-28T17:53:44;12.60;1.00
9760;DHT22;4919;48.792;9.202;2023-04-28T17:56:28;12.60;1.00
9760;DHT22;4919;48.792;9.202;2023-04-28T17:59:13;12.50;1.00
9760;DHT22;4919;48.792;9.202;2023-04-28T18:01:58;12.50;1.00
9760;DHT22;4919;48.792;9.202;2023-04-28T18:04:43;12.40;1.00
9760;DHT22;4919;48.792;9.202;2023-04-28T18:07:28;12.30;1.00
9760;DHT22;4919;48.792;9.202;2023-04-28T18:10:13;12.30;1.00
9760;DHT22;4919;48.792;9.202;2023-04-28T18:12:58;12.30;1.00
9760;DHT22;4919;48.792;9.202;2023-04-28T18:15:44;12.30;1.00
9760;DHT22;4919;48.792;9.202;2023-04-28T18:18:28;12.30;1.00
9760;DHT22;4919;48.792;9.202;2023-04-28T18:21:13;12.20;1.00
9760;DHT22;4919;48.792;9.202;2023-04-28T18:23:58;12.20;1.00
9760;DHT22;4919;48.792;9.202;2023-04-28T18:26:43;12.20;1.00
9760;DHT22;4919;48.792;9.202;2023-04-28T18:29:28;12.10;1.00
9760;DHT22;4919;48.792;9.202;2023-04-28T18:32:13;12.10;1.00
9760;DHT22;4919;48.792;9.202;2023-04-28T18:34:57;12.00;1.00
9760;DHT22;4919;48.792;9.202;2023-04-28T18:37:43;12.00;32.80
9760;DHT22;4919;48.792;9.202;2023-04-28T18:40:46;11.90;79.70
9760;DHT22;4919;48.792;9.202;2023-04-28T18:43:31;11.80;99.90
9760;DHT22;4919;48.792;9.202;2023-04-28T18:46:16;11.80;99.90